sensor_id;sensor_type;location;lat;lon;timestamp;temperature;humidity
15107;DHT22;7654;45.308;-75.096;2022-12-08T00:00:42;4.90;99.90
15107;DHT22;7654;45.308;-75.096;2022-12-08T00:03:28;4.80;99.90
15107;DHT22;7654;45.308;-75.096;2022-12-08T00:06:02;4.80;99.90
15107;DHT22;7654;45.308;-75.096;2022-12-08T00:08:50;4.80;99.90
15107;DHT22;7654;45.308;-75.096;2022-12-08T00:11:38;4.80;99.90
15107;DHT22;7654;45.308;-75.096;2022-12-08T00:14:08;4.80;99.90
15107;DHT22;7654;45.308;-75.096;2022-12-08T00:16:39;4.80;99.90
15107;DHT22;7654;45.308;-75.096;2022-12-08T00:19:10;4.80;99.90
15107;DHT22;7654;45.308;-75.096;2022-12-08T00:21:42;4.80;99.90
15107;DHT22;7654;45.308;-75.096;2022-12-08T00:24:12;4.80;99.90
15107;DHT22;7654;45.308;-75.096;2022-12-08T00:26:42;4.80;99.90
15107;DHT22;7654;45.308;-75.096;2022-12-08T00:29:13;4.80;99.90
15107;DHT22;7654;45.308;-75.096;2022-12-08T00:31:44;4.80;99.90
15107;DHT22;7654;45.308;-75.096;2022-12-08T00:34:15;4.80;99.90
15107;DHT22;7654;45.308;-75.096;2022-12-08T00:36:47;4.80;99.90
15107;DHT22;7654;45.308;-75.096;2022-12-08T00:39:17;4.80;99.90
15107;DHT22;7654;45.308;-75.096;2022-12-08T00:41:47;4.80;99.90
15107;DHT22;7654;45.308;-75.096;2022-12-08T00:44:34;4.80;99.90
15107;DHT22;7654;45.308;-75.096;2022-12-08T00:47:04;4.80;99.90
15107;DHT22;7654;45.308;-75.096;2022-12-08T00:49:34;4.80;99.90
15107;DHT22;7654;45.308;-75.096;2022-12-08T00:52:06;4.80;99.90
15107;DHT22;7654;45.308;-75.096;2022-12-08T00:54:37;4.80;99.90
15107;DHT22;7654;45.308;-75.096;2022-12-08T00:57:07;4.70;99.90
15107;DHT22;7654;45.308;-75.096;2022-12-08T00:59:37;4.70;99.90
15107;DHT22;7654;45.308;-75.096;2022-12-08T01:02:08;4.70;99.90
15107;DHT22;7654;45.308;-75.096;2022-12-08T01:04:38;4.70;99.90
15107;DHT22;7654;45.308;-75.096;2022-12-08T01:07:10;4.70;99.90
15107;DHT22;7654;45.308;-75.096;2022-12-08T01:09:40;4.70;99.90
15107;DHT22;7654;45.308;-75.096;2022-12-08T01:12:10;4.70;99.90
15107;DHT22;7654;45.308;-75.096;2022-12-08T01:14:40;4.70;99.90
15107;DHT22;7654;45.308;-75.096;2022-12-08T01:17:10;4.70;99.90
15107;DHT22;7654;45.308;-75.096;2022-12-08T01:19:41;4.70;99.90
15107;DHT22;7654;45.308;-75.096;2022-12-08T01:22:13;4.70;99.90
15107;DHT22;7654;45.308;-75.096;2022-12-08T01:24:43;4.70;99.90
15107;DHT22;7654;45.308;-75.096;2022-12-08T01:27:15;4.70;99.90
15107;DHT22;7654;45.308;-75.096;2022-12-08T01:29:45;4.70;99.90
15107;DHT22;7654;45.308;-75.096;2022-12-08T01:32:15;4.70;99.90
15107;DHT22;7654;45.308;-75.096;2022-12-08T01:34:46;4.70;99.90
15107;DHT22;7654;45.308;-75.096;2022-12-08T01:37:18;4.70;99.90
15107;DHT22;7654;45.308;-75.096;2022-12-08T01:39:48;4.70;99.90
15107;DHT22;7654;45.308;-75.096;2022-12-08T01:42:19;4.70;99.90
15107;DHT22;7654;45.308;-75.096;2022-12-08T01:44:55;4.70;99.90
15107;DHT22;7654;45.308;-75.096;2022-12-08T01:47:33;4.70;99.90
15107;DHT22;7654;45.308;-75.096;2022-12-08T01:50:07;4.70;99.90
15107;DHT22;7654;45.308;-75.096;2022-12-08T01:52:41;4.60;99.90
15107;DHT22;7654;45.308;-75.096;2022-12-08T01:55:17;4.60;99.90
15107;DHT22;7654;45.308;-75.096;2022-12-08T01:57:52;4.60;99.90
15107;DHT22;7654;45.308;-75.096;2022-12-08T02:00:25;4.50;99.90
15107;DHT22;7654;45.308;-75.096;2022-12-08T02:02:58;4.50;99.90
15107;DHT22;7654;45.308;-75.096;2022-12-08T02:05:30;4.50;99.90
15107;DHT22;7654;45.308;-75.096;2022-12-08T02:08:06;4.50;99.90
15107;DHT22;7654;45.308;-75.096;2022-12-08T02:10:38;4.50;99.90
15107;DHT22;7654;45.308;-75.096;2022-12-08T02:13:13;4.50;99.90
15107;DHT22;7654;45.308;-75.096;2022-12-08T02:15:51;4.50;99.90
15107;DHT22;7654;45.308;-75.096;2022-12-08T02:18:37;4.50;99.90
15107;DHT22;7654;45.308;-75.096;2022-12-08T02:21:40;4.50;99.90
15107;DHT22;7654;45.308;-75.096;2022-12-08T02:24:21;4.40;99.90
15107;DHT22;7654;45.308;-75.096;2022-12-08T02:27:19;4.40;99.90
15107;DHT22;7654;45.308;-75.096;2022-12-08T02:30:18;4.40;99.90
15107;DHT22;7654;45.308;-75.096;2022-12-08T02:33:15;4.40;99.90
15107;DHT22;7654;45.308;-75.096;2022-12-08T02:35:57;4.40;99.90
15107;DHT22;7654;45.308;-75.096;2022-12-08T02:38:46;4.40;99.90
15107;DHT22;7654;45.308;-75.096;2022-12-08T02:41:23;4.40;99.90
15107;DHT22;7654;45.308;-75.096;2022-12-08T02:44:00;4.40;99.90
15107;DHT22;7654;45.308;-75.096;2022-12-08T02:46:36;4.30;99.90
15107;DHT22;7654;45.308;-75.096;2022-12-08T02:49:09;4.30;99.90
15107;DHT22;7654;45.308;-75.096;2022-12-08T02:51:45;4.40;99.90
15107;DHT22;7654;45.308;-75.096;2022-12-08T02:54:25;4.40;99.90
15107;DHT22;7654;45.308;-75.096;2022-12-08T02:57:15;4.40;99.90
15107;DHT22;7654;45.308;-75.096;2022-12-08T03:00:03;4.30;99.90
15107;DHT22;7654;45.308;-75.096;2022-12-08T03:02:42;4.30;99.90
15107;DHT22;7654;45.308;-75.096;2022-12-08T03:05:23;4.30;99.90
15107;DHT22;7654;45.308;-75.096;2022-12-08T03:08:00;4.30;99.90
15107;DHT22;7654;45.308;-75.096;2022-12-08T03:10:34;4.30;99.90
15107;DHT22;7654;45.308;-75.096;2022-12-08T03:13:10;4.30;99.90
15107;DHT22;7654;45.308;-75.096;2022-12-08T03:15:44;4.20;99.90
15107;DHT22;7654;45.308;-75.096;2022-12-08T03:18:20;4.30;99.90
15107;DHT22;7654;45.308;-75.096;2022-12-08T03:20:51;4.30;99.90
15107;DHT22;7654;45.308;-75.096;2022-12-08T03:23:24;4.20;99.90
15107;DHT22;7654;45.308;-75.096;2022-12-08T03:25:59;4.20;99.90
15107;DHT22;7654;45.308;-75.096;2022-12-08T03:28:31;4.20;99.90
15107;DHT22;7654;45.308;-75.096;2022-12-08T03:31:06;4.10;99.90
15107;DHT22;7654;45.308;-75.096;2022-12-08T03:33:41;4.10;99.90
15107;DHT22;7654;45.308;-75.096;2022-12-08T03:36:16;4.00;99.90
15107;DHT22;7654;45.308;-75.096;2022-12-08T03:38:53;4.00;99.90
15107;DHT22;7654;45.308;-75.096;2022-12-08T03:41:25;4.00;99.90
15107;DHT22;7654;45.308;-75.096;2022-12-08T03:43:56;4.00;99.90
15107;DHT22;7654;45.308;-75.096;2022-12-08T03:46:28;4.00;99.90
15107;DHT22;7654;45.308;-75.096;2022-12-08T03:48:59;4.00;99.90
15107;DHT22;7654;45.308;-75.096;2022-12-08T03:51:29;4.00;99.90
15107;DHT22;7654;45.308;-75.096;2022-12-08T03:54:01;4.00;99.90
15107;DHT22;7654;45.308;-75.096;2022-12-08T03:56:33;4.00;99.90
15107;DHT22;7654;45.308;-75.096;2022-12-08T03:59:03;3.90;99.90
15107;DHT22;7654;45.308;-75.096;2022-12-08T04:01:34;3.90;99.90
15107;DHT22;7654;45.308;-75.096;2022-12-08T04:04:04;3.90;99.90
15107;DHT22;7654;45.308;-75.096;2022-12-08T04:06:34;3.90;99.90
15107;DHT22;7654;45.308;-75.096;2022-12-08T04:09:07;3.90;99.90
15107;DHT22;7654;45.308;-75.096;2022-12-08T04:11:38;3.90;99.90
15107;DHT22;7654;45.308;-75.096;2022-12-08T04:14:08;3.90;99.90
15107;DHT22;7654;45.308;-75.096;2022-12-08T04:16:38;3.90;99.90
15107;DHT22;7654;45.308;-75.096;2022-12-08T04:19:08;3.90;99.90
15107;DHT22;7654;45.308;-75.096;2022-12-08T04:21:38;3.80;99.90
15107;DHT22;7654;45.308;-75.096;2022-12-08T04:24:10;3.80;99.90
15107;DHT22;7654;45.308;-75.096;2022-12-08T04:26:40;3.80;99.90
15107;DHT22;7654;45.308;-75.096;2022-12-08T04:29:10;3.90;99.90
15107;DHT22;7654;45.308;-75.096;2022-12-08T04:31:41;3.90;99.90
15107;DHT22;7654;45.308;-75.096;2022-12-08T04:34:12;3.90;99.90
15107;DHT22;7654;45.308;-75.096;2022-12-08T04:36:42;3.90;99.90
15107;DHT22;7654;45.308;-75.096;2022-12-08T04:39:13;3.80;99.90
15107;DHT22;7654;45.308;-75.096;2022-12-08T04:41:44;3.80;99.90
15107;DHT22;7654;45.308;-75.096;2022-12-08T04:44:14;3.80;99.90
15107;DHT22;7654;45.308;-75.096;2022-12-08T04:46:44;3.80;99.90
15107;DHT22;7654;45.308;-75.096;2022-12-08T04:49:15;3.70;99.90
15107;DHT22;7654;45.308;-75.096;2022-12-08T04:51:45;3.80;99.90
15107;DHT22;7654;45.308;-75.096;2022-12-08T04:54:16;3.80;99.90
15107;DHT22;7654;45.308;-75.096;2022-12-08T04:56:47;3.80;99.90
15107;DHT22;7654;45.308;-75.096;2022-12-08T04:59:17;3.70;99.90
15107;DHT22;7654;45.308;-75.096;2022-12-08T05:01:47;3.70;99.90
15107;DHT22;7654;45.308;-75.096;2022-12-08T05:04:17;3.70;99.90
15107;DHT22;7654;45.308;-75.096;2022-12-08T05:06:47;3.70;99.90
15107;DHT22;7654;45.308;-75.096;2022-12-08T05:09:20;3.70;99.90
15107;DHT22;7654;45.308;-75.096;2022-12-08T05:11:50;3.60;99.90
15107;DHT22;7654;45.308;-75.096;2022-12-08T05:14:20;3.60;99.90
15107;DHT22;7654;45.308;-75.096;2022-12-08T05:16:51;3.50;99.90
15107;DHT22;7654;45.308;-75.096;2022-12-08T05:19:21;3.40;99.90
15107;DHT22;7654;45.308;-75.096;2022-12-08T05:21:51;3.30;99.90
15107;DHT22;7654;45.308;-75.096;2022-12-08T05:24:23;3.40;99.90
15107;DHT22;7654;45.308;-75.096;2022-12-08T05:26:53;3.30;99.90
15107;DHT22;7654;45.308;-75.096;2022-12-08T05:29:24;3.30;99.90
15107;DHT22;7654;45.308;-75.096;2022-12-08T05:31:54;3.30;99.90
15107;DHT22;7654;45.308;-75.096;2022-12-08T05:34:25;3.30;99.90
15107;DHT22;7654;45.308;-75.096;2022-12-08T05:36:55;3.30;99.90
15107;DHT22;7654;45.308;-75.096;2022-12-08T05:39:27;3.30;99.90
15107;DHT22;7654;45.308;-75.096;2022-12-08T05:41:58;3.30;99.90
15107;DHT22;7654;45.308;-75.096;2022-12-08T05:44:28;3.30;99.90
15107;DHT22;7654;45.308;-75.096;2022-12-08T05:46:58;3.40;99.90
15107;DHT22;7654;45.308;-75.096;2022-12-08T05:49:28;3.30;99.90
15107;DHT22;7654;45.308;-75.096;2022-12-08T05:51:58;3.30;99.90
15107;DHT22;7654;45.308;-75.096;2022-12-08T05:54:30;3.30;99.90
15107;DHT22;7654;45.308;-75.096;2022-12-08T05:57:00;3.30;99.90
15107;DHT22;7654;45.308;-75.096;2022-12-08T05:59:30;3.20;99.90
15107;DHT22;7654;45.308;-75.096;2022-12-08T06:02:00;3.30;99.90
15107;DHT22;7654;45.308;-75.096;2022-12-08T06:04:31;3.30;99.90
15107;DHT22;7654;45.308;-75.096;2022-12-08T06:07:01;3.30;99.90
15107;DHT22;7654;45.308;-75.096;2022-12-08T06:09:33;3.30;99.90
15107;DHT22;7654;45.308;-75.096;2022-12-08T06:12:03;3.30;99.90
15107;DHT22;7654;45.308;-75.096;2022-12-08T06:14:33;3.30;99.90
15107;DHT22;7654;45.308;-75.096;2022-12-08T06:17:03;3.30;99.90
15107;DHT22;7654;45.308;-75.096;2022-12-08T06:19:34;3.20;99.90
15107;DHT22;7654;45.308;-75.096;2022-12-08T06:22:04;3.20;99.90
15107;DHT22;7654;45.308;-75.096;2022-12-08T06:24:36;3.20;99.90
15107;DHT22;7654;45.308;-75.096;2022-12-08T06:27:06;3.30;99.90
15107;DHT22;7654;45.308;-75.096;2022-12-08T06:29:36;3.30;99.90
15107;DHT22;7654;45.308;-75.096;2022-12-08T06:32:06;3.30;99.90
15107;DHT22;7654;45.308;-75.096;2022-12-08T06:34:37;3.30;99.90
15107;DHT22;7654;45.308;-75.096;2022-12-08T06:37:07;3.30;99.90
15107;DHT22;7654;45.308;-75.096;2022-12-08T06:39:39;3.30;99.90
15107;DHT22;7654;45.308;-75.096;2022-12-08T06:42:09;3.20;99.90
15107;DHT22;7654;45.308;-75.096;2022-12-08T06:44:56;3.20;99.90
15107;DHT22;7654;45.308;-75.096;2022-12-08T06:47:26;3.20;99.90
15107;DHT22;7654;45.308;-75.096;2022-12-08T06:49:56;3.20;99.90
15107;DHT22;7654;45.308;-75.096;2022-12-08T06:52:26;3.20;99.90
15107;DHT22;7654;45.308;-75.096;2022-12-08T06:54:58;3.20;99.90
15107;DHT22;7654;45.308;-75.096;2022-12-08T06:57:28;3.20;99.90
15107;DHT22;7654;45.308;-75.096;2022-12-08T06:59:59;3.20;99.90
15107;DHT22;7654;45.308;-75.096;2022-12-08T07:02:30;3.20;99.90
15107;DHT22;7654;45.308;-75.096;2022-12-08T07:05:00;3.20;99.90
15107;DHT22;7654;45.308;-75.096;2022-12-08T07:07:30;3.30;99.90
15107;DHT22;7654;45.308;-75.096;2022-12-08T07:10:02;3.20;99.90
15107;DHT22;7654;45.308;-75.096;2022-12-08T07:12:33;3.20;99.90
15107;DHT22;7654;45.308;-75.096;2022-12-08T07:15:03;3.20;99.90
15107;DHT22;7654;45.308;-75.096;2022-12-08T07:17:33;3.20;99.90
15107;DHT22;7654;45.308;-75.096;2022-12-08T07:20:05;3.10;99.90
15107;DHT22;7654;45.308;-75.096;2022-12-08T07:22:35;3.10;99.90
15107;DHT22;7654;45.308;-75.096;2022-12-08T07:25:08;3.10;99.90
15107;DHT22;7654;45.308;-75.096;2022-12-08T07:27:38;3.10;99.90
15107;DHT22;7654;45.308;-75.096;2022-12-08T07:30:09;3.10;99.90
15107;DHT22;7654;45.308;-75.096;2022-12-08T07:32:39;3.20;99.90
15107;DHT22;7654;45.308;-75.096;2022-12-08T07:35:10;3.20;99.90
15107;DHT22;7654;45.308;-75.096;2022-12-08T07:37:40;3.10;99.90
15107;DHT22;7654;45.308;-75.096;2022-12-08T07:40:13;3.10;99.90
15107;DHT22;7654;45.308;-75.096;2022-12-08T07:42:43;3.10;99.90
15107;DHT22;7654;45.308;-75.096;2022-12-08T07:45:13;3.00;99.90
15107;DHT22;7654;45.308;-75.096;2022-12-08T07:47:44;3.00;99.90
15107;DHT22;7654;45.308;-75.096;2022-12-08T07:50:14;3.00;99.90
15107;DHT22;7654;45.308;-75.096;2022-12-08T07:52:44;2.90;99.90
15107;DHT22;7654;45.308;-75.096;2022-12-08T07:55:16;2.90;99.90
15107;DHT22;7654;45.308;-75.096;2022-12-08T07:57:46;2.90;99.90
15107;DHT22;7654;45.308;-75.096;2022-12-08T08:00:17;2.90;99.90
15107;DHT22;7654;45.308;-75.096;2022-12-08T08:02:47;3.00;99.90
15107;DHT22;7654;45.308;-75.096;2022-12-08T08:05:17;2.90;99.90
15107;DHT22;7654;45.308;-75.096;2022-12-08T08:07:48;3.00;99.90
15107;DHT22;7654;45.308;-75.096;2022-12-08T08:10:21;3.00;99.90
15107;DHT22;7654;45.308;-75.096;2022-12-08T08:12:51;3.00;99.90
15107;DHT22;7654;45.308;-75.096;2022-12-08T08:15:21;3.10;99.90
15107;DHT22;7654;45.308;-75.096;2022-12-08T08:17:51;3.00;99.90
15107;DHT22;7654;45.308;-75.096;2022-12-08T08:20:22;2.90;99.90
15107;DHT22;7654;45.308;-75.096;2022-12-08T08:22:52;2.90;99.90
15107;DHT22;7654;45.308;-75.096;2022-12-08T08:25:24;2.90;99.90
15107;DHT22;7654;45.308;-75.096;2022-12-08T08:27:54;2.80;99.90
15107;DHT22;7654;45.308;-75.096;2022-12-08T08:30:24;2.80;99.90
15107;DHT22;7654;45.308;-75.096;2022-12-08T08:32:54;2.90;99.90
15107;DHT22;7654;45.308;-75.096;2022-12-08T08:35:25;2.80;99.90
15107;DHT22;7654;45.308;-75.096;2022-12-08T08:37:55;2.90;99.90
15107;DHT22;7654;45.308;-75.096;2022-12-08T08:40:27;2.80;99.90
15107;DHT22;7654;45.308;-75.096;2022-12-08T08:42:59;2.80;99.90
15107;DHT22;7654;45.308;-75.096;2022-12-08T08:45:29;2.90;99.90
15107;DHT22;7654;45.308;-75.096;2022-12-08T08:47:59;2.90;99.90
15107;DHT22;7654;45.308;-75.096;2022-12-08T08:50:29;2.90;99.90
15107;DHT22;7654;45.308;-75.096;2022-12-08T08:53:04;2.90;99.90
15107;DHT22;7654;45.308;-75.096;2022-12-08T08:55:38;2.90;99.90
15107;DHT22;7654;45.308;-75.096;2022-12-08T08:58:08;2.90;99.90
15107;DHT22;7654;45.308;-75.096;2022-12-08T09:00:38;2.90;99.90
15107;DHT22;7654;45.308;-75.096;2022-12-08T09:03:08;2.90;99.90
15107;DHT22;7654;45.308;-75.096;2022-12-08T09:05:40;2.90;99.90
15107;DHT22;7654;45.308;-75.096;2022-12-08T09:08:10;2.90;99.90
15107;DHT22;7654;45.308;-75.096;2022-12-08T09:10:42;2.80;99.90
15107;DHT22;7654;45.308;-75.096;2022-12-08T09:13:12;2.90;99.90
15107;DHT22;7654;45.308;-75.096;2022-12-08T09:15:43;2.90;99.90
15107;DHT22;7654;45.308;-75.096;2022-12-08T09:18:13;2.90;99.90
15107;DHT22;7654;45.308;-75.096;2022-12-08T09:20:43;2.90;99.90
15107;DHT22;7654;45.308;-75.096;2022-12-08T09:23:14;2.90;99.90
15107;DHT22;7654;45.308;-75.096;2022-12-08T09:25:45;2.90;99.90
15107;DHT22;7654;45.308;-75.096;2022-12-08T09:28:15;2.90;99.90
15107;DHT22;7654;45.308;-75.096;2022-12-08T09:30:46;2.80;99.90
15107;DHT22;7654;45.308;-75.096;2022-12-08T09:33:16;2.80;99.90
15107;DHT22;7654;45.308;-75.096;2022-12-08T09:35:47;2.80;99.90
15107;DHT22;7654;45.308;-75.096;2022-12-08T09:38:17;2.80;99.90
15107;DHT22;7654;45.308;-75.096;2022-12-08T09:40:52;2.70;99.90
15107;DHT22;7654;45.308;-75.096;2022-12-08T09:43:42;2.70;99.90
15107;DHT22;7654;45.308;-75.096;2022-12-08T09:46:16;2.80;99.90
15107;DHT22;7654;45.308;-75.096;2022-12-08T09:48:50;2.80;99.90
15107;DHT22;7654;45.308;-75.096;2022-12-08T09:51:24;2.80;99.90
15107;DHT22;7654;45.308;-75.096;2022-12-08T09:53:57;2.70;99.90
15107;DHT22;7654;45.308;-75.096;2022-12-08T09:56:32;2.70;99.90
15107;DHT22;7654;45.308;-75.096;2022-12-08T09:59:05;2.70;99.90
15107;DHT22;7654;45.308;-75.096;2022-12-08T10:01:40;2.70;99.90
15107;DHT22;7654;45.308;-75.096;2022-12-08T10:04:18;2.70;99.90
15107;DHT22;7654;45.308;-75.096;2022-12-08T10:06:58;2.70;99.90
15107;DHT22;7654;45.308;-75.096;2022-12-08T10:09:37;2.70;99.90
15107;DHT22;7654;45.308;-75.096;2022-12-08T10:12:16;2.60;99.90
15107;DHT22;7654;45.308;-75.096;2022-12-08T10:14:56;2.50;99.90
15107;DHT22;7654;45.308;-75.096;2022-12-08T10:17:32;2.60;99.90
15107;DHT22;7654;45.308;-75.096;2022-12-08T10:20:11;2.50;99.90
15107;DHT22;7654;45.308;-75.096;2022-12-08T10:22:42;2.50;99.90
15107;DHT22;7654;45.308;-75.096;2022-12-08T10:25:16;2.50;99.90
15107;DHT22;7654;45.308;-75.096;2022-12-08T10:27:51;2.50;99.90
15107;DHT22;7654;45.308;-75.096;2022-12-08T10:30:22;2.50;99.90
15107;DHT22;7654;45.308;-75.096;2022-12-08T10:32:53;2.50;99.90
15107;DHT22;7654;45.308;-75.096;2022-12-08T10:35:24;2.40;99.90
15107;DHT22;7654;45.308;-75.096;2022-12-08T10:38:18;2.40;99.90
15107;DHT22;7654;45.308;-75.096;2022-12-08T10:40:50;2.30;99.90
15107;DHT22;7654;45.308;-75.096;2022-12-08T10:43:24;2.30;99.90
15107;DHT22;7654;45.308;-75.096;2022-12-08T10:46:07;2.20;99.90
15107;DHT22;7654;45.308;-75.096;2022-12-08T10:48:47;2.20;99.90
15107;DHT22;7654;45.308;-75.096;2022-12-08T10:51:27;2.20;99.90
15107;DHT22;7654;45.308;-75.096;2022-12-08T10:53:58;2.20;99.90
15107;DHT22;7654;45.308;-75.096;2022-12-08T10:56:29;2.20;99.90
15107;DHT22;7654;45.308;-75.096;2022-12-08T10:59:12;2.20;99.90
15107;DHT22;7654;45.308;-75.096;2022-12-08T11:01:46;2.20;99.90
15107;DHT22;7654;45.308;-75.096;2022-12-08T11:04:19;2.30;99.90
15107;DHT22;7654;45.308;-75.096;2022-12-08T11:06:50;2.20;99.90
15107;DHT22;7654;45.308;-75.096;2022-12-08T11:09:31;2.20;99.90
15107;DHT22;7654;45.308;-75.096;2022-12-08T11:12:07;2.30;99.90
15107;DHT22;7654;45.308;-75.096;2022-12-08T11:14:46;2.20;99.90
15107;DHT22;7654;45.308;-75.096;2022-12-08T11:17:24;2.20;99.90
15107;DHT22;7654;45.308;-75.096;2022-12-08T11:19:57;2.10;99.90
15107;DHT22;7654;45.308;-75.096;2022-12-08T11:22:30;2.10;99.90
15107;DHT22;7654;45.308;-75.096;2022-12-08T11:25:07;2.10;99.90
15107;DHT22;7654;45.308;-75.096;2022-12-08T11:27:40;2.10;99.90
15107;DHT22;7654;45.308;-75.096;2022-12-08T11:30:18;2.00;99.90
15107;DHT22;7654;45.308;-75.096;2022-12-08T11:32:51;2.00;99.90
15107;DHT22;7654;45.308;-75.096;2022-12-08T11:35:28;1.90;99.90
15107;DHT22;7654;45.308;-75.096;2022-12-08T11:38:04;1.80;99.90
15107;DHT22;7654;45.308;-75.096;2022-12-08T11:40:49;1.70;99.90
15107;DHT22;7654;45.308;-75.096;2022-12-08T11:43:24;1.70;99.90
15107;DHT22;7654;45.308;-75.096;2022-12-08T11:46:00;1.60;99.90
15107;DHT22;7654;45.308;-75.096;2022-12-08T11:48:34;1.50;99.90
15107;DHT22;7654;45.308;-75.096;2022-12-08T11:51:11;1.40;99.90
15107;DHT22;7654;45.308;-75.096;2022-12-08T11:53:46;1.40;99.90
15107;DHT22;7654;45.308;-75.096;2022-12-08T11:56:23;1.50;99.90
15107;DHT22;7654;45.308;-75.096;2022-12-08T11:58:57;1.50;99.90
15107;DHT22;7654;45.308;-75.096;2022-12-08T12:01:29;1.50;99.90
15107;DHT22;7654;45.308;-75.096;2022-12-08T12:04:14;1.40;99.90
15107;DHT22;7654;45.308;-75.096;2022-12-08T12:07:08;1.30;99.90
15107;DHT22;7654;45.308;-75.096;2022-12-08T12:09:47;1.10;99.90
15107;DHT22;7654;45.308;-75.096;2022-12-08T12:12:29;1.00;99.90
15107;DHT22;7654;45.308;-75.096;2022-12-08T12:15:50;0.70;99.90
15107;DHT22;7654;45.308;-75.096;2022-12-08T12:18:27;0.60;99.90
15107;DHT22;7654;45.308;-75.096;2022-12-08T12:21:03;0.40;99.90
15107;DHT22;7654;45.308;-75.096;2022-12-08T12:23:37;0.30;99.90
15107;DHT22;7654;45.308;-75.096;2022-12-08T12:26:16;0.30;99.90
15107;DHT22;7654;45.308;-75.096;2022-12-08T12:28:50;0.30;99.90
15107;DHT22;7654;45.308;-75.096;2022-12-08T12:31:24;0.20;99.90
15107;DHT22;7654;45.308;-75.096;2022-12-08T12:34:04;0.10;99.90
15107;DHT22;7654;45.308;-75.096;2022-12-08T12:36:49;0.10;99.90
15107;DHT22;7654;45.308;-75.096;2022-12-08T12:39:24;0.00;99.90
15107;DHT22;7654;45.308;-75.096;2022-12-08T12:41:55;0.00;99.90
15107;DHT22;7654;45.308;-75.096;2022-12-08T12:44:40;0.00;99.90
15107;DHT22;7654;45.308;-75.096;2022-12-08T12:47:13;0.10;99.90
15107;DHT22;7654;45.308;-75.096;2022-12-08T12:50:10;0.10;99.90
15107;DHT22;7654;45.308;-75.096;2022-12-08T12:52:44;0.00;99.90
15107;DHT22;7654;45.308;-75.096;2022-12-08T12:55:26;0.10;99.90
15107;DHT22;7654;45.308;-75.096;2022-12-08T12:58:02;0.00;99.90
15107;DHT22;7654;45.308;-75.096;2022-12-08T13:00:32;-0.10;99.90
15107;DHT22;7654;45.308;-75.096;2022-12-08T13:03:02;-0.10;99.90
15107;DHT22;7654;45.308;-75.096;2022-12-08T13:05:46;-0.10;99.90
15107;DHT22;7654;45.308;-75.096;2022-12-08T13:08:21;-0.10;99.90
15107;DHT22;7654;45.308;-75.096;2022-12-08T13:10:59;0.00;99.90
15107;DHT22;7654;45.308;-75.096;2022-12-08T13:13:30;0.00;99.90
15107;DHT22;7654;45.308;-75.096;2022-12-08T13:16:04;0.00;99.90
15107;DHT22;7654;45.308;-75.096;2022-12-08T13:18:47;-0.10;99.90
15107;DHT22;7654;45.308;-75.096;2022-12-08T13:21:21;-0.10;99.90
15107;DHT22;7654;45.308;-75.096;2022-12-08T13:24:13;-0.10;99.90
15107;DHT22;7654;45.308;-75.096;2022-12-08T13:26:45;-0.10;99.90
15107;DHT22;7654;45.308;-75.096;2022-12-08T13:29:21;0.00;99.90
15107;DHT22;7654;45.308;-75.096;2022-12-08T13:31:52;0.00;99.90
15107;DHT22;7654;45.308;-75.096;2022-12-08T13:34:29;0.00;99.90
15107;DHT22;7654;45.308;-75.096;2022-12-08T13:37:19;0.10;99.90
15107;DHT22;7654;45.308;-75.096;2022-12-08T13:39:52;0.10;99.90
15107;DHT22;7654;45.308;-75.096;2022-12-08T13:42:29;0.10;99.90
15107;DHT22;7654;45.308;-75.096;2022-12-08T13:45:03;0.10;99.90
15107;DHT22;7654;45.308;-75.096;2022-12-08T13:47:57;0.20;99.90
15107;DHT22;7654;45.308;-75.096;2022-12-08T13:50:53;0.20;99.90
15107;DHT22;7654;45.308;-75.096;2022-12-08T13:54:03;0.20;99.90
15107;DHT22;7654;45.308;-75.096;2022-12-08T13:56:55;0.30;99.90
15107;DHT22;7654;45.308;-75.096;2022-12-08T13:59:42;0.40;99.90
15107;DHT22;7654;45.308;-75.096;2022-12-08T14:02:16;0.40;99.90
15107;DHT22;7654;45.308;-75.096;2022-12-08T14:04:48;0.40;99.90
15107;DHT22;7654;45.308;-75.096;2022-12-08T14:07:39;0.40;99.90
15107;DHT22;7654;45.308;-75.096;2022-12-08T14:10:16;0.50;99.90
15107;DHT22;7654;45.308;-75.096;2022-12-08T14:12:51;0.50;99.90
15107;DHT22;7654;45.308;-75.096;2022-12-08T14:15:25;0.60;99.90
15107;DHT22;7654;45.308;-75.096;2022-12-08T14:18:03;0.60;99.90
15107;DHT22;7654;45.308;-75.096;2022-12-08T14:20:34;0.70;99.90
15107;DHT22;7654;45.308;-75.096;2022-12-08T14:23:24;0.70;99.90
15107;DHT22;7654;45.308;-75.096;2022-12-08T14:25:56;0.70;99.90
15107;DHT22;7654;45.308;-75.096;2022-12-08T14:28:26;0.80;99.90
15107;DHT22;7654;45.308;-75.096;2022-12-08T14:30:57;0.90;99.90
15107;DHT22;7654;45.308;-75.096;2022-12-08T14:33:28;1.00;99.90
15107;DHT22;7654;45.308;-75.096;2022-12-08T14:36:00;1.00;99.90
15107;DHT22;7654;45.308;-75.096;2022-12-08T14:38:30;1.00;99.90
15107;DHT22;7654;45.308;-75.096;2022-12-08T14:41:03;1.00;99.90
15107;DHT22;7654;45.308;-75.096;2022-12-08T14:43:34;1.10;99.90
15107;DHT22;7654;45.308;-75.096;2022-12-08T14:46:18;1.10;99.90
15107;DHT22;7654;45.308;-75.096;2022-12-08T14:48:49;1.10;99.90
15107;DHT22;7654;45.308;-75.096;2022-12-08T14:51:25;1.20;99.90
15107;DHT22;7654;45.308;-75.096;2022-12-08T14:53:58;1.30;99.90
15107;DHT22;7654;45.308;-75.096;2022-12-08T14:56:35;1.30;99.90
15107;DHT22;7654;45.308;-75.096;2022-12-08T14:59:11;1.30;99.90
15107;DHT22;7654;45.308;-75.096;2022-12-08T15:01:43;1.30;99.90
15107;DHT22;7654;45.308;-75.096;2022-12-08T15:04:16;1.40;99.90
15107;DHT22;7654;45.308;-75.096;2022-12-08T15:06:51;1.40;99.90
15107;DHT22;7654;45.308;-75.096;2022-12-08T15:09:30;1.40;99.90
15107;DHT22;7654;45.308;-75.096;2022-12-08T15:12:03;1.50;99.90
15107;DHT22;7654;45.308;-75.096;2022-12-08T15:14:35;1.50;99.90
15107;DHT22;7654;45.308;-75.096;2022-12-08T15:17:28;1.50;99.90
15107;DHT22;7654;45.308;-75.096;2022-12-08T15:20:00;1.60;99.90
15107;DHT22;7654;45.308;-75.096;2022-12-08T15:22:31;1.60;99.90
15107;DHT22;7654;45.308;-75.096;2022-12-08T15:25:02;1.70;99.90
15107;DHT22;7654;45.308;-75.096;2022-12-08T15:27:35;1.80;99.90
15107;DHT22;7654;45.308;-75.096;2022-12-08T15:30:18;1.90;99.90
15107;DHT22;7654;45.308;-75.096;2022-12-08T15:32:48;2.00;99.90
15107;DHT22;7654;45.308;-75.096;2022-12-08T15:35:19;2.20;99.90
15107;DHT22;7654;45.308;-75.096;2022-12-08T15:37:50;2.40;99.90
15107;DHT22;7654;45.308;-75.096;2022-12-08T15:40:21;2.50;99.90
15107;DHT22;7654;45.308;-75.096;2022-12-08T15:42:55;2.60;99.90
15107;DHT22;7654;45.308;-75.096;2022-12-08T15:45:29;3.00;99.90
15107;DHT22;7654;45.308;-75.096;2022-12-08T15:48:00;3.40;99.90
15107;DHT22;7654;45.308;-75.096;2022-12-08T15:50:30;3.70;99.90
15107;DHT22;7654;45.308;-75.096;2022-12-08T15:53:00;3.90;99.90
15107;DHT22;7654;45.308;-75.096;2022-12-08T15:55:30;4.00;99.90
15107;DHT22;7654;45.308;-75.096;2022-12-08T15:58:20;3.80;99.90
15107;DHT22;7654;45.308;-75.096;2022-12-08T16:01:10;3.70;99.90
15107;DHT22;7654;45.308;-75.096;2022-12-08T16:03:41;3.90;99.90
15107;DHT22;7654;45.308;-75.096;2022-12-08T16:06:31;4.00;99.90
15107;DHT22;7654;45.308;-75.096;2022-12-08T16:09:27;4.30;99.90
15107;DHT22;7654;45.308;-75.096;2022-12-08T16:11:58;4.50;99.90
15107;DHT22;7654;45.308;-75.096;2022-12-08T16:14:47;4.70;99.90